Time;durP1;ratioP1;P1;durP2;ratioP2;P2;SDS_P1;SDS_P2;PMS_P1;PMS_P2;Temp;Humidity;BMP_temperature;BMP_pressure;BME280_temperature;BME280_humidity;BME280_pressure;Samples;Min_cycle;Max_cycle;Signal;HPM_P1;HPM_P2
2023/08/13 00:02:03;;;;;;;12.17;4.47;;;;;;;16.93;79.60;101536.25;5265514;28;20492;-81
2023/08/13 00:04:35;;;;;;;10.20;3.93;;;;;;;16.92;80.10;101532.78;5265398;28;20372;-82
2023/08/13 00:07:06;;;;;;;12.90;3.43;;;;;;;16.86;80.52;101532.94;5265485;28;20084;-81
2023/08/13 00:09:40;;;;;;;10.13;3.33;;;;;;;16.92;80.94;101531.91;5265029;28;20030;-82
2023/08/13 00:12:12;;;;;;;12.38;3.50;;;;;;;16.79;81.06;101528.69;5265215;28;20472;-82
2023/08/13 00:14:43;;;;;;;12.83;4.80;;;;;;;16.76;81.44;101523.53;5264879;28;20037;-82
2023/08/13 00:17:14;;;;;;;10.57;4.03;;;;;;;16.75;81.51;101524.44;5265262;28;20029;-82
2023/08/13 00:19:46;;;;;;;9.53;3.63;;;;;;;16.71;82.08;101526.28;5265523;28;20071;-82
2023/08/13 00:22:17;;;;;;;14.10;3.60;;;;;;;16.68;82.71;101520.22;5264978;28;20033;-82
2023/08/13 00:24:51;;;;;;;10.83;3.97;;;;;;;16.66;83.18;101524.66;5264024;28;20071;-81
2023/08/13 00:27:22;;;;;;;12.02;4.30;;;;;;;16.57;83.32;101517.91;5265238;28;20491;-82
2023/08/13 00:29:53;;;;;;;8.83;3.13;;;;;;;16.55;84.13;101519.69;5264776;28;20025;-82
2023/08/13 00:32:25;;;;;;;11.33;3.80;;;;;;;16.54;84.26;101524.09;5263521;28;20033;-82
2023/08/13 00:34:56;;;;;;;10.97;4.40;;;;;;;16.40;84.88;101524.47;5265012;28;20033;-82
2023/08/13 00:37:28;;;;;;;9.90;3.67;;;;;;;16.43;84.48;101518.25;5264942;28;20112;-82
2023/08/13 00:39:59;;;;;;;13.80;3.67;;;;;;;16.41;84.58;101522.69;5264862;28;20061;-82
2023/08/13 00:42:30;;;;;;;9.23;3.07;;;;;;;16.29;85.39;101515.94;5264968;28;20475;-81
2023/08/13 00:45:02;;;;;;;10.43;3.93;;;;;;;16.32;85.22;101513.25;5263115;28;20036;-82
2023/08/13 00:47:34;;;;;;;12.13;3.83;;;;;;;16.21;85.46;101521.41;5264464;28;20029;-83
2023/08/13 00:50:06;;;;;;;11.10;3.08;;;;;;;16.21;85.75;101510.00;5264649;28;20541;-82
2023/08/13 00:52:38;;;;;;;16.08;4.15;;;;;;;16.23;85.54;101510.88;5264859;28;20119;-81
2023/08/13 00:55:11;;;;;;;11.60;3.92;;;;;;;16.08;86.36;101511.22;5264726;28;20464;-81
2023/08/13 00:57:43;;;;;;;13.07;4.07;;;;;;;16.11;86.87;101509.38;5246632;28;20029;-81
2023/08/13 01:00:16;;;;;;;11.73;3.73;;;;;;;16.02;86.65;101504.34;5264550;28;20032;-82
2023/08/13 01:02:48;;;;;;;12.77;3.33;;;;;;;16.01;87.02;101518.41;5264663;28;20021;-80
2023/08/13 01:05:27;;;;;;;10.07;3.55;;;;;;;16.02;87.18;101514.88;5264138;28;20499;-80
2023/08/13 01:08:20;;;;;;;11.25;3.67;;;;;;;15.89;87.59;101513.41;5263968;28;20035;-82
2023/08/13 01:11:13;;;;;;;15.10;3.17;;;;;;;15.84;88.38;101517.03;5264445;28;20055;-79
2023/08/13 01:13:54;;;;;;;13.18;4.43;;;;;;;15.83;88.59;101519.69;5265956;28;20033;-81
2023/08/13 01:16:27;;;;;;;13.10;4.55;;;;;;;15.89;88.39;101519.56;5275127;28;20041;-82
2023/08/13 01:18:59;;;;;;;8.15;3.42;;;;;;;15.78;88.60;101517.16;5265387;28;20057;-81
2023/08/13 01:21:30;;;;;;;15.30;3.88;;;;;;;15.82;88.61;101520.59;5264956;28;20041;-81
2023/08/13 01:24:01;;;;;;;12.67;3.80;;;;;;;15.79;88.71;101521.53;5263084;28;20076;-81
2023/08/13 01:26:49;;;;;;;12.77;3.50;;;;;;;15.75;89.47;101527.72;5264631;28;20445;-80
2023/08/13 01:29:39;;;;;;;8.85;3.42;;;;;;;15.79;89.23;101518.03;5265014;28;20037;-84
2023/08/13 01:32:14;;;;;;;12.63;4.03;;;;;;;15.71;89.67;101530.44;5266492;28;20033;-83
2023/08/13 01:34:47;;;;;;;8.57;3.08;;;;;;;15.64;89.83;101533.22;5264545;28;20453;-83
2023/08/13 01:37:21;;;;;;;12.68;3.42;;;;;;;15.63;90.31;101528.88;5263880;28;20051;-83
2023/08/13 01:39:52;;;;;;;8.27;2.78;;;;;;;15.64;90.49;101535.84;5263765;28;20032;-82
2023/08/13 01:42:24;;;;;;;10.40;3.67;;;;;;;15.63;90.73;101527.97;5262870;28;20037;-82
2023/08/13 01:44:56;;;;;;;13.38;3.97;;;;;;;15.59;90.78;101523.72;5263131;28;20115;-83
2023/08/13 01:47:27;;;;;;;10.60;3.33;;;;;;;15.64;91.33;101522.69;5263600;28;20115;-82
2023/08/13 01:49:59;;;;;;;12.03;3.40;;;;;;;15.59;91.20;101532.44;5263685;28;20033;-82
2023/08/13 01:52:31;;;;;;;8.97;3.47;;;;;;;15.53;91.59;101527.31;5265506;28;20025;-81
2023/08/13 01:55:03;;;;;;;8.80;3.40;;;;;;;15.62;91.99;101532.38;5266965;28;20067;-82
2023/08/13 01:57:34;;;;;;;14.35;3.83;;;;;;;15.50;92.11;101528.28;5267968;28;20480;-82
2023/08/13 02:00:07;;;;;;;12.97;3.43;;;;;;;15.50;92.12;101527.38;5265543;28;20048;-82
2023/08/13 02:02:38;;;;;;;11.30;3.20;;;;;;;15.45;92.57;101529.25;5265955;28;20029;-80
2023/08/13 02:05:10;;;;;;;13.87;3.80;;;;;;;15.49;92.76;101525.69;5264239;28;20431;-81
2023/08/13 02:07:41;;;;;;;15.00;3.77;;;;;;;15.39;93.14;101524.13;5262389;28;20094;-81
2023/08/13 02:10:12;;;;;;;13.47;3.47;;;;;;;15.40;93.13;101523.22;5261877;28;20029;-82
2023/08/13 02:12:45;;;;;;;;;;;;;;;15.42;91.74;101534.56;5262334;28;20049;-81
2023/08/13 02:15:16;;;;;;;13.75;3.97;;;;;;;15.41;93.21;101527.59;5263153;28;19971;-82
2023/08/13 02:17:48;;;;;;;12.73;3.97;;;;;;;15.32;93.46;101519.00;5261971;28;20068;-79
2023/08/13 02:20:19;;;;;;;12.50;3.80;;;;;;;15.34;93.79;101510.22;5263208;28;20402;-81
2023/08/13 02:22:50;;;;;;;12.97;2.83;;;;;;;15.25;94.27;101512.16;5263720;28;20392;-81
2023/08/13 02:25:22;;;;;;;12.63;4.03;;;;;;;15.24;94.67;101513.03;5263978;28;20123;-82
2023/08/13 02:27:53;;;;;;;11.70;3.30;;;;;;;15.22;95.04;101506.94;5265149;28;20037;-81
2023/08/13 02:30:25;;;;;;;12.47;3.80;;;;;;;15.13;95.44;101512.38;5265603;28;20029;-82
2023/08/13 02:32:56;;;;;;;13.70;3.83;;;;;;;15.11;95.81;101511.56;5264336;28;20040;-81
2023/08/13 02:35:28;;;;;;;13.83;3.40;;;;;;;15.17;96.20;101502.72;5264464;28;20029;-80
2023/08/13 02:38:00;;;;;;;14.25;3.40;;;;;;;15.09;96.53;101503.72;5264874;28;20120;-82
2023/08/13 02:40:31;;;;;;;9.73;3.40;;;;;;;15.03;97.24;101503.81;5263461;28;20033;-81
2023/08/13 02:43:03;;;;;;;12.83;4.00;;;;;;;14.97;97.51;101510.97;5263900;28;20108;-81
2023/08/13 02:45:34;;;;;;;12.13;3.17;;;;;;;14.92;97.84;101506.69;5262656;28;20091;-80
2023/08/13 02:48:06;;;;;;;11.83;3.00;;;;;;;14.95;97.72;101505.75;5263003;28;20036;-81
2023/08/13 02:50:37;;;;;;;11.10;3.03;;;;;;;14.99;97.85;101501.28;5261623;28;20025;-82
2023/08/13 02:53:08;;;;;;;11.43;3.50;;;;;;;14.93;98.33;101502.28;5263542;28;20057;-81
2023/08/13 02:55:40;;;;;;;9.53;3.43;;;;;;;14.93;98.70;101500.53;5267366;28;20031;-80
2023/08/13 02:58:11;;;;;;;12.10;3.40;;;;;;;14.87;98.91;101498.00;5267287;28;20029;-80
2023/08/13 03:00:42;;;;;;;10.07;4.17;;;;;;;14.87;99.22;101507.66;5265307;28;20033;-81
2023/08/13 03:03:14;;;;;;;7.90;2.83;;;;;;;14.85;99.47;101502.44;5266250;28;20103;-81
2023/08/13 03:05:45;;;;;;;9.43;3.47;;;;;;;14.80;99.30;101498.19;5266193;28;20028;-81
2023/08/13 03:08:17;;;;;;;15.20;3.67;;;;;;;14.80;99.92;101503.44;5265789;28;20104;-80
2023/08/13 03:10:48;;;;;;;11.57;3.33;;;;;;;14.76;100.00;101489.47;5266298;28;20036;-81
2023/08/13 03:13:20;;;;;;;11.23;3.73;;;;;;;14.73;100.00;101502.66;5266309;28;20061;-80
2023/08/13 03:15:52;;;;;;;10.37;3.57;;;;;;;14.72;100.00;101495.69;5264518;28;20159;-80
2023/08/13 03:18:24;;;;;;;11.83;3.83;;;;;;;14.71;100.00;101504.44;5265889;28;20040;-81
2023/08/13 03:20:55;;;;;;;11.23;3.45;;;;;;;14.70;100.00;101502.72;5266133;28;20036;-81
2023/08/13 03:23:27;;;;;;;12.23;3.33;;;;;;;14.63;100.00;101498.47;5266017;28;20037;-81
2023/08/13 03:26:00;;;;;;;12.88;3.92;;;;;;;14.63;100.00;101498.47;5265988;28;20063;-80
2023/08/13 03:28:31;;;;;;;;;;;;;;;14.61;99.90;101500.28;5266440;28;20037;-81
2023/08/13 03:31:02;;;;;;;10.50;4.03;;;;;;;14.62;100.00;101497.63;5265618;28;19921;-82
2023/08/13 03:33:34;;;;;;;8.07;3.57;;;;;;;14.62;100.00;101507.22;5264591;28;20278;-81
2023/08/13 03:36:05;;;;;;;8.90;3.77;;;;;;;14.61;100.00;101502.91;5266020;28;20032;-83
2023/08/13 03:38:36;;;;;;;13.40;3.00;;;;;;;14.53;100.00;101497.75;5266308;28;20033;-83
2023/08/13 03:41:09;;;;;;;11.23;4.10;;;;;;;14.48;100.00;101499.59;5265489;28;20095;-82
2023/08/13 03:43:40;;;;;;;;;;;;;;;14.48;100.00;101491.72;5266056;28;20043;-82
2023/08/13 03:46:12;;;;;;;10.38;3.20;;;;;;;14.47;100.00;101495.22;5265134;28;20010;-81
2023/08/13 03:48:43;;;;;;;8.70;3.57;;;;;;;14.52;100.00;101494.28;5266130;28;20500;-82
2023/08/13 03:51:14;;;;;;;8.53;3.23;;;;;;;14.48;100.00;101497.81;5265560;28;20029;-81
2023/08/13 03:53:46;;;;;;;13.17;4.07;;;;;;;14.47;100.00;101493.47;5265799;28;20037;-83
2023/08/13 03:56:17;;;;;;;10.53;3.83;;;;;;;14.46;100.00;101501.34;5265102;28;20025;-81
2023/08/13 03:58:48;;;;;;;10.97;3.67;;;;;;;14.46;100.00;101510.13;5264219;28;20029;-81
2023/08/13 04:01:20;;;;;;;11.57;3.43;;;;;;;14.43;100.00;101506.69;5265539;28;20029;-81
2023/08/13 04:03:51;;;;;;;13.13;3.80;;;;;;;14.40;100.00;101504.97;5264582;28;20112;-81
2023/08/13 04:06:23;;;;;;;11.97;3.47;;;;;;;14.41;100.00;101501.47;5265051;28;20033;-82
2023/08/13 04:08:54;;;;;;;10.70;3.00;;;;;;;14.39;100.00;101505.84;5265277;28;20178;-82
2023/08/13 04:11:26;;;;;;;11.73;3.70;;;;;;;14.40;100.00;101518.09;5265424;28;20040;-80
2023/08/13 04:13:57;;;;;;;14.50;3.93;;;;;;;14.38;100.00;101509.38;5265444;28;20094;-81
2023/08/13 04:16:28;;;;;;;11.23;3.83;;;;;;;14.41;100.00;101517.19;5263680;28;20033;-81
2023/08/13 04:19:00;;;;;;;10.60;3.37;;;;;;;14.46;100.00;101510.13;5264849;28;20049;-81
2023/08/13 04:21:31;;;;;;;13.43;4.23;;;;;;;14.45;100.00;101504.91;5263867;28;20032;-81
2023/08/13 04:24:03;;;;;;;12.37;3.40;;;;;;;14.47;100.00;101516.22;5265311;28;20033;-81
2023/08/13 04:26:35;;;;;;;11.77;3.88;;;;;;;14.40;100.00;101518.09;5265447;28;20036;-81
2023/08/13 04:29:06;;;;;;;8.93;3.60;;;;;;;14.43;100.00;101511.94;5265682;28;20090;-82
2023/08/13 04:31:37;;;;;;;14.67;3.50;;;;;;;14.43;100.00;101512.78;5266621;28;20501;-80
2023/08/13 04:34:09;;;;;;;12.63;4.07;;;;;;;14.43;100.00;101506.69;5265006;28;20409;-80
2023/08/13 04:36:40;;;;;;;9.97;3.43;;;;;;;14.43;100.00;101511.94;5265427;28;20504;-82
2023/08/13 04:39:12;;;;;;;7.90;2.97;;;;;;;14.44;100.00;101511.91;5267060;28;20059;-81
2023/08/13 04:41:43;;;;;;;12.50;3.70;;;;;;;14.46;100.00;101509.22;5266020;28;20033;-82
2023/08/13 04:44:15;;;;;;;13.37;4.13;;;;;;;14.46;100.00;101518.00;5263298;28;20039;-81
2023/08/13 04:46:46;;;;;;;14.13;3.60;;;;;;;14.50;100.00;101509.16;5264338;28;20036;-82
2023/08/13 04:49:17;;;;;;;12.70;3.47;;;;;;;14.54;100.00;101517.84;5247004;28;20065;-83
2023/08/13 04:51:49;;;;;;;12.17;3.47;;;;;;;14.58;100.00;101532.63;5264589;28;20056;-81
2023/08/13 04:54:20;;;;;;;10.10;3.30;;;;;;;14.61;100.00;101522.13;5264935;28;20073;-83
2023/08/13 04:56:52;;;;;;;15.70;4.17;;;;;;;14.61;100.00;101522.13;5264927;28;20480;-81
2023/08/13 04:59:23;;;;;;;11.17;3.47;;;;;;;14.65;100.00;101513.31;5264634;28;20036;-81
2023/08/13 05:01:54;;;;;;;11.27;4.53;;;;;;;14.69;100.00;101514.97;5263566;28;20503;-82
2023/08/13 05:04:26;;;;;;;6.83;3.40;;;;;;;14.70;100.00;101519.34;5263008;28;20044;-82
2023/08/13 05:06:57;;;;;;;14.37;4.43;;;;;;;14.73;100.00;101521.03;5264459;28;20102;-82
2023/08/13 05:09:29;;;;;;;10.63;4.23;;;;;;;14.79;100.00;101510.41;5262592;28;20040;-81
2023/08/13 05:12:01;;;;;;;9.57;3.50;;;;;;;14.83;100.00;101501.59;5264288;28;20392;-83
2023/08/13 05:14:33;;;;;;;7.13;3.35;;;;;;;14.84;100.00;101503.31;5263382;28;20037;-82
2023/08/13 05:17:17;;;;;;;10.53;3.77;;;;;;;14.85;100.00;101514.69;5262877;28;20036;-83
2023/08/13 05:19:49;;;;;;;13.38;5.10;;;;;;;14.86;100.00;101512.06;5264130;28;20045;-84
2023/08/13 05:22:20;;;;;;;10.60;4.23;;;;;;;14.88;100.00;101515.50;5264298;28;20055;-80
2023/08/13 05:24:52;;;;;;;10.67;3.50;;;;;;;14.88;100.00;101520.75;5263631;28;20040;-82
2023/08/13 05:27:23;;;;;;;10.40;3.53;;;;;;;14.94;100.00;101520.63;5263843;28;20052;-82
2023/08/13 05:29:55;;;;;;;13.23;4.07;;;;;;;14.98;100.00;101525.84;5263936;28;20072;-82
2023/08/13 05:32:26;;;;;;;14.93;4.20;;;;;;;15.01;100.00;101523.16;5264157;28;20079;-81
2023/08/13 05:34:58;;;;;;;15.87;4.03;;;;;;;15.01;100.00;101523.16;5262933;28;20035;-83
2023/08/13 05:37:29;;;;;;;11.23;3.20;;;;;;;15.06;100.00;101529.19;5263971;28;20033;-82
2023/08/13 05:40:01;;;;;;;12.93;3.83;;;;;;;15.07;100.00;101533.50;5262113;28;20033;-81
2023/08/13 05:42:32;;;;;;;11.97;3.63;;;;;;;15.11;100.00;101535.19;5263761;28;20029;-84
2023/08/13 05:45:04;;;;;;;11.80;3.70;;;;;;;15.15;100.00;101531.63;5261836;28;20057;-82
2023/08/13 05:47:35;;;;;;;13.63;3.70;;;;;;;15.20;100.00;101529.75;5263257;28;20079;-82
2023/08/13 05:50:07;;;;;;;12.60;4.50;;;;;;;15.26;100.00;101534.91;5262966;28;20060;-82
2023/08/13 05:52:38;;;;;;;17.75;4.10;;;;;;;15.37;100.00;101537.28;5264493;28;20053;-83
2023/08/13 05:55:10;;;;;;;12.23;3.80;;;;;;;15.48;100.00;101537.91;5263250;28;20036;-82
2023/08/13 05:57:41;;;;;;;12.70;4.30;;;;;;;15.54;100.00;101542.19;5262971;28;20074;-83
2023/08/13 06:00:13;;;;;;;14.27;4.80;;;;;;;15.59;100.00;101535.06;5262038;28;20112;-81
2023/08/13 06:02:44;;;;;;;13.90;4.07;;;;;;;15.69;100.00;101539.22;5262960;28;20025;-83
2023/08/13 06:05:16;;;;;;;9.27;3.13;;;;;;;15.80;100.00;101543.44;5263330;28;20071;-82
2023/08/13 06:07:47;;;;;;;8.63;3.53;;;;;;;15.93;100.00;101538.75;5263116;28;20089;-82
2023/08/13 06:10:19;;;;;;;13.93;3.63;;;;;;;16.02;98.89;101535.91;5263284;28;20478;-80
2023/08/13 06:12:50;;;;;;;14.23;4.20;;;;;;;16.13;98.42;101541.78;5263187;28;20487;-82
2023/08/13 06:15:23;;;;;;;13.97;4.00;;;;;;;16.26;97.59;101544.09;5263371;28;20064;-81
2023/08/13 06:17:54;;;;;;;11.90;3.45;;;;;;;16.33;97.61;101533.41;5262946;28;20025;-82
2023/08/13 06:20:26;;;;;;;14.30;4.60;;;;;;;16.48;96.83;101536.53;5263182;28;20051;-83
2023/08/13 06:22:57;;;;;;;12.00;5.13;;;;;;;16.52;96.03;101539.06;5263301;28;20057;-82
2023/08/13 06:25:28;;;;;;;13.47;3.50;;;;;;;16.69;95.31;101535.13;5263097;28;20056;-82
2023/08/13 06:28:00;;;;;;;12.27;3.83;;;;;;;16.85;94.37;101536.47;5261447;28;20059;-83
2023/08/13 06:30:31;;;;;;;12.20;3.20;;;;;;;16.95;93.74;101535.34;5263518;28;20036;-82
2023/08/13 06:33:03;;;;;;;14.03;3.97;;;;;;;17.04;93.63;101536.84;5262578;28;20025;-82
2023/08/13 06:35:35;;;;;;;7.20;3.00;;;;;;;17.06;92.76;101536.78;5262893;28;20198;-81
2023/08/13 06:38:06;;;;;;;13.30;3.57;;;;;;;17.18;92.58;101540.84;5262808;28;20147;-83
2023/08/13 06:40:38;;;;;;;13.13;3.15;;;;;;;17.32;92.03;101549.22;5262769;28;20040;-81
2023/08/13 06:43:10;;;;;;;9.57;3.33;;;;;;;17.43;90.41;101546.28;5262621;28;20519;-82
2023/08/13 06:45:42;;;;;;;10.05;2.90;;;;;;;17.58;90.61;101544.94;5262216;28;20495;-83
2023/08/13 06:48:13;;;;;;;10.97;3.97;;;;;;;17.67;88.96;101548.19;5263276;28;20059;-82
2023/08/13 06:50:48;;;;;;;10.33;3.13;;;;;;;17.73;88.96;101547.16;5262767;28;20029;-79
2023/08/13 06:53:19;;;;;;;11.43;3.70;;;;;;;17.79;87.55;101546.06;5259760;28;20499;-80
2023/08/13 06:55:51;;;;;;;15.73;3.73;;;;;;;17.94;87.57;101542.16;5262231;28;20025;-79
2023/08/13 06:58:23;;;;;;;13.27;3.40;;;;;;;18.01;87.28;101533.97;5262794;28;20037;-81
2023/08/13 07:00:54;;;;;;;14.38;4.57;;;;;;;18.18;87.85;101544.00;5262293;28;20880;-79
2023/08/13 07:03:26;;;;;;;12.83;3.90;;;;;;;18.35;86.57;101529.38;5245004;28;20111;-81
2023/08/13 07:05:59;;;;;;;8.83;3.13;;;;;;;18.59;85.95;101532.97;5265002;28;20033;-80
2023/08/13 07:08:30;;;;;;;10.13;3.45;;;;;;;18.70;85.17;101532.59;5264901;28;20053;-80
2023/08/13 07:11:02;;;;;;;10.97;3.37;;;;;;;18.90;83.31;101537.19;5262851;28;20076;-81
2023/08/13 07:13:33;;;;;;;10.57;3.00;;;;;;;18.95;83.74;101528.19;5263665;28;20040;-78
2023/08/13 07:16:04;;;;;;;12.53;3.40;;;;;;;19.01;82.98;101537.66;5260537;28;20029;-80
2023/08/13 07:18:36;;;;;;;7.77;3.23;;;;;;;19.19;82.45;101536.16;5261770;28;20083;-79
2023/08/13 07:21:08;;;;;;;10.90;3.00;;;;;;;19.21;83.11;101523.75;5261318;28;20025;-79
2023/08/13 07:23:40;;;;;;;7.70;2.97;;;;;;;19.26;81.19;101532.34;5261877;28;20045;-78
2023/08/13 07:26:11;;;;;;;8.37;3.10;;;;;;;19.24;81.31;101539.50;5259740;28;20114;-80
2023/08/13 07:28:44;;;;;;;9.77;3.07;;;;;;;19.24;80.31;101536.84;5262230;28;20033;-81
2023/08/13 07:31:18;;;;;;;9.48;3.33;;;;;;;19.27;81.55;101536.75;5260160;28;20033;-83
2023/08/13 07:33:51;;;;;;;10.43;4.13;;;;;;;19.45;80.72;101534.31;5260820;28;20029;-83
2023/08/13 07:36:23;;;;;;;12.23;4.85;;;;;;;19.68;81.35;101538.72;5261135;28;20072;-84
2023/08/13 07:38:54;;;;;;;10.13;3.00;;;;;;;19.76;79.58;101533.16;5261197;28;20116;-83
2023/08/13 07:41:26;;;;;;;13.47;3.57;;;;;;;19.92;78.87;101534.28;5247316;28;20033;-79
2023/08/13 07:43:58;;;;;;;10.17;3.57;;;;;;;20.09;79.40;101533.56;5266516;28;20124;-82
2023/08/13 07:46:29;;;;;;;10.65;2.97;;;;;;;20.38;77.90;101532.38;5264261;28;20044;-82
2023/08/13 07:49:00;;;;;;;11.60;4.33;;;;;;;20.50;76.04;101530.16;5266884;28;20035;-80
2023/08/13 07:51:32;;;;;;;12.90;4.27;;;;;;;20.55;76.15;101534.31;5266346;28;20063;-81
2023/08/13 07:54:03;;;;;;;8.27;3.00;;;;;;;20.59;75.16;101525.31;5266470;28;20029;-83
2023/08/13 07:56:35;;;;;;;12.13;3.30;;;;;;;20.64;73.88;101530.44;5267302;28;20029;-80
2023/08/13 07:59:06;;;;;;;11.57;3.70;;;;;;;20.69;74.23;101525.81;5276555;28;20127;-82
2023/08/13 08:01:38;;;;;;;11.40;3.33;;;;;;;20.86;74.40;101526.84;5275962;28;20041;-80
2023/08/13 08:04:09;;;;;;;12.60;3.10;;;;;;;21.20;73.00;101517.38;5274193;28;20029;-81
2023/08/13 08:06:40;;;;;;;8.90;2.73;;;;;;;21.38;72.12;101518.31;5273153;28;20037;-82
2023/08/13 08:09:12;;;;;;;12.87;4.63;;;;;;;21.43;69.40;101529.56;5274189;28;20040;-82
2023/08/13 08:11:43;;;;;;;13.37;4.37;;;;;;;21.42;69.15;101533.16;5272365;28;20025;-80
2023/08/13 08:14:14;;;;;;;10.20;2.67;;;;;;;21.15;70.04;101533.50;5273495;28;20040;-79
2023/08/13 08:16:46;;;;;;;8.03;2.60;;;;;;;21.12;72.29;101526.56;5271675;28;20037;-78
2023/08/13 08:19:17;;;;;;;14.63;4.17;;;;;;;21.23;70.37;101530.50;5271513;28;20041;-79
2023/08/13 08:21:49;;;;;;;7.80;2.90;;;;;;;21.39;70.24;101530.66;5270345;28;20112;-79
2023/08/13 08:24:20;;;;;;;8.93;2.93;;;;;;;21.37;70.08;101528.06;5268843;28;20537;-79
2023/08/13 08:26:52;;;;;;;8.20;2.63;;;;;;;21.42;69.05;101528.72;5268025;28;20039;-80
2023/08/13 08:29:23;;;;;;;11.90;3.00;;;;;;;21.47;70.48;101523.19;5267664;28;20271;-83
2023/08/13 08:31:54;;;;;;;6.87;3.13;;;;;;;21.62;68.86;101529.59;5265252;28;20526;-80
2023/08/13 08:34:26;;;;;;;8.87;3.03;;;;;;;21.79;68.27;101529.66;5265119;28;20036;-80
2023/08/13 08:36:57;;;;;;;8.43;3.10;;;;;;;21.99;67.71;101531.38;5261392;28;20025;-80
2023/08/13 08:39:29;;;;;;;12.63;4.30;;;;;;;22.11;66.63;101527.22;5261543;28;20268;-79
2023/08/13 08:42:00;;;;;;;8.80;2.87;;;;;;;22.39;65.34;101526.75;5262958;28;20061;-79
2023/08/13 08:44:33;;;;;;;9.87;2.87;;;;;;;22.68;65.55;101531.50;5262031;28;20120;-77
2023/08/13 08:47:06;;;;;;;12.63;3.78;;;;;;;22.42;62.79;101522.22;5263915;28;20029;-80
2023/08/13 08:49:38;;;;;;;8.05;2.80;;;;;;;22.41;63.64;101524.00;5264021;28;20035;-82
2023/08/13 08:52:10;;;;;;;9.48;2.97;;;;;;;22.69;63.36;101525.25;5260380;28;20041;-81
2023/08/13 08:54:42;;;;;;;8.60;2.50;;;;;;;22.92;61.56;101521.38;5264005;28;20037;-80
2023/08/13 08:57:14;;;;;;;9.93;3.28;;;;;;;22.82;60.36;101512.19;5263878;28;20591;-79
2023/08/13 08:59:46;;;;;;;7.55;2.83;;;;;;;22.85;60.58;101512.88;5264360;28;20453;-78
2023/08/13 09:02:17;;;;;;;7.20;2.80;;;;;;;22.76;62.76;101518.66;5263864;28;20040;-79
2023/08/13 09:04:48;;;;;;;9.70;3.80;;;;;;;22.83;60.85;101509.44;5263694;28;20094;-80
2023/08/13 09:07:28;;;;;;;11.20;3.20;;;;;;;23.22;59.80;101510.91;5263714;28;20418;-79
2023/08/13 09:10:04;;;;;;;8.30;2.90;;;;;;;23.00;59.69;101516.50;5264851;28;20168;-80
2023/08/13 09:12:37;;;;;;;8.60;2.88;;;;;;;23.14;58.23;101502.50;5263719;28;20112;-80
2023/08/13 09:15:11;;;;;;;9.77;3.28;;;;;;;23.10;56.89;101501.81;5262463;28;20036;-79
2023/08/13 09:17:42;;;;;;;9.63;2.63;;;;;;;23.15;56.61;101498.88;5264075;28;20479;-80
2023/08/13 09:20:19;;;;;;;11.47;3.20;;;;;;;23.15;57.47;101500.69;5264135;28;20057;-79
2023/08/13 09:22:51;;;;;;;6.95;2.92;;;;;;;22.94;57.03;101500.88;5263523;28;20036;-78
2023/08/13 09:25:22;;;;;;;8.97;2.70;;;;;;;23.18;57.73;101493.41;5263688;28;20477;-81
2023/08/13 09:27:54;;;;;;;9.00;2.70;;;;;;;23.40;57.10;101503.72;5263644;28;20032;-79
2023/08/13 09:30:31;;;;;;;7.30;3.00;;;;;;;23.45;56.01;101495.50;5263786;28;20025;-80
2023/08/13 09:33:03;;;;;;;5.68;2.65;;;;;;;23.37;55.69;101498.56;5267409;28;20059;-80
2023/08/13 09:35:34;;;;;;;6.18;3.03;;;;;;;23.38;55.51;101500.28;5266062;28;20591;-80
2023/08/13 09:38:06;;;;;;;8.65;3.30;;;;;;;23.38;55.45;101488.81;5247198;28;20025;-79
2023/08/13 09:40:37;;;;;;;7.23;2.63;;;;;;;23.75;55.22;101481.41;5262549;28;20039;-80
2023/08/13 09:43:15;;;;;;;7.88;3.05;;;;;;;24.04;55.36;101471.75;5246157;28;20083;-81
2023/08/13 09:45:48;;;;;;;7.68;3.20;;;;;;;23.91;52.65;101473.41;5262843;28;20033;-79
2023/08/13 09:48:25;;;;;;;10.05;3.35;;;;;;;24.15;52.18;101466.66;5263104;28;20383;-79
2023/08/13 09:51:01;;;;;;;8.85;3.13;;;;;;;25.09;49.42;101470.75;5263129;28;20061;-79
2023/08/13 09:53:33;;;;;;;9.30;4.05;;;;;;;25.09;48.97;101468.94;5245301;28;20377;-78
2023/08/13 09:56:05;;;;;;;9.00;3.30;;;;;;;24.68;51.03;101472.38;5261948;28;20060;-78
2023/08/13 09:58:37;;;;;;;8.95;2.47;;;;;;;25.20;49.83;101470.94;5263848;28;20040;-80
2023/08/13 10:01:09;;;;;;;9.63;3.65;;;;;;;25.52;48.71;101456.47;5263262;28;20182;-81
2023/08/13 10:03:41;;;;;;;6.72;2.45;;;;;;;25.16;49.41;101469.41;5261465;28;20036;-80
2023/08/13 10:06:14;;;;;;;7.10;2.63;;;;;;;25.05;48.87;101458.56;5262893;28;20366;-80
2023/08/13 10:08:46;;;;;;;8.18;3.05;;;;;;;25.18;48.94;101459.50;5263057;28;20035;-80
2023/08/13 10:11:18;;;;;;;7.30;2.90;;;;;;;24.86;49.06;101456.19;5261453;28;20379;-79
2023/08/13 10:13:50;;;;;;;9.15;2.95;;;;;;;24.86;48.08;101464.19;5262649;28;20469;-79
2023/08/13 10:16:22;;;;;;;9.80;3.13;;;;;;;24.36;50.67;101463.66;5263883;28;20170;-79
2023/08/13 10:18:58;;;;;;;8.27;2.92;;;;;;;24.44;51.57;101463.16;5263580;28;20025;-79
2023/08/13 10:21:34;;;;;;;10.35;2.92;;;;;;;24.27;49.72;101454.41;5263356;28;20025;-79
2023/08/13 10:24:11;;;;;;;7.10;2.83;;;;;;;24.95;50.05;101455.59;5261599;28;20025;-78
2023/08/13 10:26:42;;;;;;;9.98;3.00;;;;;;;25.41;50.09;101455.38;5263556;28;20060;-79
2023/08/13 10:29:18;;;;;;;9.65;3.20;;;;;;;25.21;50.75;101458.44;5263036;28;20148;-79
2023/08/13 10:32:00;;;;;;;9.60;3.30;;;;;;;25.03;50.92;101452.47;5263092;28;20307;-78
2023/08/13 10:34:38;;;;;;;9.30;2.92;;;;;;;24.61;51.47;101446.19;5262846;28;20139;-77
2023/08/13 10:37:15;;;;;;;9.40;3.05;;;;;;;24.21;52.08;101446.75;5262710;28;20529;-79
2023/08/13 10:40:05;;;;;;;9.52;3.33;;;;;;;24.68;53.14;101445.72;5262488;28;20128;-78
2023/08/13 10:42:37;;;;;;;9.00;3.65;;;;;;;25.20;50.22;101446.06;5262957;28;20064;-80
2023/08/13 10:45:10;;;;;;;11.10;3.42;;;;;;;25.95;47.45;101446.50;5262374;28;20090;-79
2023/08/13 10:48:02;;;;;;;11.02;3.10;;;;;;;27.11;46.00;101444.72;5262557;28;20159;-80
2023/08/13 10:50:39;;;;;;;9.80;3.30;;;;;;;27.51;43.28;101435.59;5262569;28;20457;-80
2023/08/13 10:53:22;;;;;;;6.70;3.10;;;;;;;28.60;41.89;101429.13;5262829;28;20056;-80
2023/08/13 10:55:56;;;;;;;8.75;3.40;;;;;;;29.52;38.74;101433.41;5263157;28;20491;-80
2023/08/13 10:58:33;;;;;;;11.07;3.78;;;;;;;29.45;38.65;101435.75;5263139;28;20076;-79
2023/08/13 11:01:13;;;;;;;11.07;3.28;;;;;;;28.08;40.21;101435.84;5263447;28;20025;-78
2023/08/13 11:03:52;;;;;;;10.20;3.33;;;;;;;28.26;40.71;101438.94;5262984;28;20107;-79
2023/08/13 11:06:27;;;;;;;6.85;3.10;;;;;;;28.53;38.63;101428.75;5262398;28;20025;-77
2023/08/13 11:08:59;;;;;;;7.63;3.28;;;;;;;28.84;39.15;101433.53;5260439;28;20103;-78
2023/08/13 11:11:31;;;;;;;;;;;;;;;30.53;36.46;101432.88;5262288;28;20481;-78
2023/08/13 11:14:02;;;;;;;7.93;2.93;;;;;;;29.08;38.09;101428.00;5261784;28;19923;-78
2023/08/13 11:16:33;;;;;;;;;;;;;;;30.55;35.44;101425.53;5266015;28;20033;-77
2023/08/13 11:19:05;;;;;;;7.03;2.80;;;;;;;31.66;34.21;101424.72;5265459;28;19971;-78
2023/08/13 11:21:36;;;;;;;8.60;3.17;;;;;;;32.15;33.17;101422.81;5265810;28;20037;-80
2023/08/13 11:24:12;;;;;;;10.73;2.70;;;;;;;31.98;35.81;101437.88;5263658;28;20033;-79
2023/08/13 11:26:44;;;;;;;9.50;3.15;;;;;;;31.80;33.79;101432.38;5265574;28;20036;-77
2023/08/13 11:29:21;;;;;;;11.70;3.42;;;;;;;29.99;35.61;101431.25;5247204;28;20032;-77
2023/08/13 11:31:53;;;;;;;8.70;3.08;;;;;;;28.15;38.97;101431.72;5262905;28;20369;-77
2023/08/13 11:34:24;;;;;;;9.52;3.25;;;;;;;28.27;38.31;101430.78;5264280;28;20115;-79
2023/08/13 11:36:56;;;;;;;;;;;;;;;29.55;38.19;101425.94;5264775;28;20218;-77
2023/08/13 11:39:28;;;;;;;9.07;3.17;;;;;;;28.12;38.87;101424.75;5264857;28;19966;-78
2023/08/13 11:42:09;;;;;;;;;;;;;;;29.12;37.75;101423.22;5264434;28;20041;-77
2023/08/13 11:44:40;;;;;;;8.80;3.00;;;;;;;28.46;40.03;101407.88;5264489;28;19917;-78